createdAt,value
2023-05-15T00:04:38.183Z,9.20
2023-05-15T00:09:41.508Z,9.20
2023-05-15T00:14:46.574Z,9.30
2023-05-15T00:19:49.997Z,9.20
2023-05-15T00:24:53.987Z,9.30
2023-05-15T00:29:58.646Z,9.40
2023-05-15T00:35:01.998Z,9.50
2023-05-15T00:40:10.916Z,9.50
2023-05-15T00:45:16.616Z,9.60
2023-05-15T00:50:21.125Z,9.60
2023-05-15T00:55:26.790Z,9.60
2023-05-15T01:00:34.580Z,9.50
2023-05-15T01:05:38.242Z,9.40
2023-05-15T01:10:45.611Z,9.20
2023-05-15T01:15:50.784Z,9.10
2023-05-15T01:21:18.228Z,9.00
2023-05-15T01:26:58.530Z,9.00
2023-05-15T01:32:07.038Z,8.90
2023-05-15T01:37:14.108Z,8.80
2023-05-15T01:42:19.538Z,8.60
2023-05-15T01:47:31.821Z,8.60
2023-05-15T01:52:38.892Z,8.50
2023-05-15T01:57:43.319Z,8.50
2023-05-15T02:02:50.216Z,8.50
2023-05-15T02:07:55.769Z,8.40
2023-05-15T02:13:01.077Z,8.30
2023-05-15T02:18:06.484Z,8.20
2023-05-15T02:23:09.893Z,8.20
2023-05-15T02:28:21.289Z,8.20
2023-05-15T02:33:31.719Z,8.20
2023-05-15T02:38:40.962Z,8.10
2023-05-15T02:43:45.709Z,7.90
2023-05-15T02:48:51.732Z,7.80
2023-05-15T02:53:56.376Z,7.90
2023-05-15T02:58:59.896Z,7.80
2023-05-15T03:04:04.987Z,7.80
2023-05-15T03:09:08.520Z,7.80
2023-05-15T03:14:14.079Z,7.90
2023-05-15T03:19:18.966Z,7.80
2023-05-15T03:24:22.314Z,7.90
2023-05-15T03:29:26.519Z,7.80
2023-05-15T03:34:31.370Z,7.90
2023-05-15T03:39:34.754Z,7.90
2023-05-15T03:44:38.515Z,8.00
2023-05-15T03:49:43.950Z,8.20
2023-05-15T03:54:47.479Z,8.20
2023-05-15T03:59:50.874Z,8.40
2023-05-15T04:04:55.935Z,8.40
2023-05-15T04:10:01.586Z,8.60
2023-05-15T04:15:15.787Z,8.80
2023-05-15T04:20:22.711Z,8.90
2023-05-15T04:25:28.049Z,9.10
2023-05-15T04:30:31.683Z,9.30
2023-05-15T04:35:36.316Z,9.50
2023-05-15T04:40:40.144Z,9.70
2023-05-15T04:45:43.529Z,9.80
2023-05-15T04:50:48.134Z,10.10
2023-05-15T04:55:51.645Z,10.50
2023-05-15T05:00:55.551Z,11.20
2023-05-15T05:06:00.392Z,13.20
2023-05-15T05:11:04.686Z,15.60
2023-05-15T05:16:08.235Z,17.10
2023-05-15T05:21:13.149Z,17.60
2023-05-15T05:26:16.829Z,19.30
2023-05-15T05:31:20.629Z,21.30
2023-05-15T05:36:25.628Z,21.40
2023-05-15T05:41:28.926Z,23.40
2023-05-15T05:46:32.583Z,24.20
2023-05-15T05:51:37.471Z,25.50
2023-05-15T05:56:41.521Z,25.70
2023-05-15T06:01:45.090Z,25.50
2023-05-15T06:06:50.224Z,25.70
2023-05-15T06:11:53.701Z,26.60
2023-05-15T06:16:57.462Z,26.70
2023-05-15T06:22:02.182Z,25.10
2023-05-15T06:27:05.682Z,22.90
2023-05-15T06:32:09.542Z,21.70
2023-05-15T06:37:14.464Z,23.90
2023-05-15T06:42:17.642Z,24.60
2023-05-15T06:47:22.860Z,25.10
2023-05-15T06:52:28.634Z,25.30
2023-05-15T06:57:33.745Z,23.40
2023-05-15T07:02:37.155Z,23.00
2023-05-15T07:07:43.012Z,23.00
2023-05-15T07:12:47.149Z,22.90
2023-05-15T07:17:51.735Z,22.80
2023-05-15T07:22:57.339Z,22.70
2023-05-15T07:28:00.682Z,21.90
2023-05-15T07:33:04.340Z,21.80
2023-05-15T07:38:09.907Z,22.10
2023-05-15T07:43:13.483Z,24.40
2023-05-15T07:48:18.887Z,25.40
2023-05-15T07:53:23.767Z,23.30
2023-05-15T07:58:29.172Z,22.00
2023-05-15T08:03:33.947Z,22.00
2023-05-15T08:08:39.307Z,21.50
2023-05-15T08:13:42.777Z,21.60
2023-05-15T08:18:47.137Z,21.20
2023-05-15T08:23:53.770Z,21.20
2023-05-15T08:28:57.388Z,21.60
2023-05-15T08:34:01.253Z,21.60
2023-05-15T08:39:06.130Z,20.80
2023-05-15T08:44:11.297Z,20.10
2023-05-15T08:49:25.266Z,19.80
2023-05-15T08:54:31.047Z,20.20
2023-05-15T08:59:35.006Z,20.80
2023-05-15T09:04:38.411Z,20.20
2023-05-15T09:09:45.248Z,21.00
2023-05-15T09:14:48.772Z,21.50
2023-05-15T09:19:52.572Z,21.30
2023-05-15T09:24:58.213Z,21.80
2023-05-15T09:30:10.175Z,22.30
2023-05-15T09:35:29.996Z,22.00
2023-05-15T09:40:35.894Z,22.10
2023-05-15T09:45:39.332Z,21.90
2023-05-15T09:50:42.957Z,21.60
2023-05-15T09:55:48.592Z,22.00
2023-05-15T10:00:51.976Z,22.00
2023-05-15T10:06:01.081Z,22.60
2023-05-15T10:11:07.091Z,22.30
2023-05-15T10:16:11.199Z,22.40
2023-05-15T10:21:18.346Z,21.50
2023-05-15T10:26:27.292Z,21.20
2023-05-15T10:31:31.813Z,21.00
2023-05-15T10:36:36.836Z,20.50
2023-05-15T10:41:42.801Z,20.00
2023-05-15T10:46:47.730Z,19.90
2023-05-15T10:51:53.216Z,20.00
2023-05-15T10:56:58.459Z,20.40
2023-05-15T11:02:21.228Z,21.00
2023-05-15T11:07:25.853Z,20.70
2023-05-15T11:12:55.622Z,21.00
2023-05-15T11:18:03.477Z,21.00
2023-05-15T11:23:07.772Z,21.10
2023-05-15T11:28:23.169Z,21.90
2023-05-15T11:33:30.353Z,22.60
2023-05-15T11:38:39.874Z,23.10
2023-05-15T11:43:45.813Z,23.50
2023-05-15T11:48:50.748Z,23.20
2023-05-15T11:53:56.754Z,24.00
2023-05-15T11:59:02.486Z,24.80
2023-05-15T12:04:12.921Z,25.30
2023-05-15T12:09:19.138Z,25.70
2023-05-15T12:14:28.932Z,24.80
2023-05-15T12:19:33.424Z,24.70
2023-05-15T12:24:39.781Z,25.80
2023-05-15T12:29:45.146Z,25.20
2023-05-15T12:34:49.520Z,26.80
2023-05-15T12:39:54.814Z,26.30
2023-05-15T12:45:00.471Z,26.30
2023-05-15T12:50:13.049Z,27.30
2023-05-15T12:55:17.397Z,26.60
2023-05-15T13:00:23.211Z,27.90
2023-05-15T13:05:27.440Z,28.50
2023-05-15T13:10:33.027Z,26.60
2023-05-15T13:15:39.401Z,26.70
2023-05-15T13:20:45.187Z,27.00
2023-05-15T13:25:48.470Z,27.50
2023-05-15T13:30:53.624Z,27.70
2023-05-15T13:41:18.410Z,26.10
2023-05-15T13:46:24.482Z,23.50
2023-05-15T13:51:38.607Z,20.00
2023-05-15T13:57:00.880Z,18.70
2023-05-15T14:02:09.772Z,18.20
2023-05-15T14:07:14.991Z,17.40
2023-05-15T14:12:19.752Z,17.60
2023-05-15T14:17:24.996Z,18.00
2023-05-15T14:22:28.554Z,18.90
2023-05-15T14:27:32.320Z,19.60
2023-05-15T14:32:37.465Z,19.30
2023-05-15T14:37:41.034Z,19.40
2023-05-15T14:42:44.554Z,18.90
2023-05-15T14:47:49.575Z,18.50
2023-05-15T14:52:53.839Z,18.70
2023-05-15T14:57:58.946Z,19.10
2023-05-15T15:03:04.948Z,19.10
2023-05-15T15:08:10.137Z,19.80
2023-05-15T15:13:14.113Z,18.80
2023-05-15T15:18:20.698Z,18.30
2023-05-15T15:23:24.152Z,18.30
2023-05-15T15:28:29.643Z,18.30
2023-05-15T15:33:34.361Z,19.10
2023-05-15T15:38:41.856Z,20.20
2023-05-15T15:43:45.414Z,21.00
2023-05-15T15:48:50.137Z,20.90
2023-05-15T15:53:53.525Z,20.80
2023-05-15T15:58:56.845Z,20.00
2023-05-15T16:04:02.315Z,19.40
2023-05-15T16:09:05.769Z,19.90
2023-05-15T16:14:09.454Z,19.70
2023-05-15T16:19:14.519Z,19.80
2023-05-15T16:24:18.169Z,19.10
2023-05-15T16:29:24.009Z,19.20
2023-05-15T16:34:28.760Z,18.90
2023-05-15T16:39:38.564Z,19.00
2023-05-15T16:44:42.011Z,19.10
2023-05-15T16:49:49.155Z,19.00
2023-05-15T16:54:53.561Z,18.70
2023-05-15T16:59:57.062Z,18.40
2023-05-15T17:05:01.783Z,18.20
2023-05-15T17:10:06.170Z,18.00
2023-05-15T17:15:10.128Z,17.70
2023-05-15T17:20:15.230Z,17.60
2023-05-15T17:25:18.548Z,17.70
2023-05-15T17:30:22.088Z,17.50
2023-05-15T17:35:27.584Z,17.40
2023-05-15T17:40:31.792Z,17.40
2023-05-15T17:45:35.285Z,17.30
2023-05-15T17:50:40.010Z,17.20
2023-05-15T17:55:44.301Z,17.10
2023-05-15T18:00:47.816Z,16.90
2023-05-15T18:05:52.782Z,16.80
2023-05-15T18:10:56.219Z,16.70
2023-05-15T18:16:56.880Z,16.50
2023-05-15T18:22:03.349Z,16.40
2023-05-15T18:27:07.207Z,16.30
2023-05-15T18:32:11.460Z,16.20
2023-05-15T18:37:16.790Z,16.20
2023-05-15T18:42:20.138Z,16.00
2023-05-15T18:47:23.987Z,16.00
2023-05-15T18:52:28.952Z,16.00
2023-05-15T18:57:32.384Z,15.90
2023-05-15T19:02:37.831Z,15.80
2023-05-15T19:07:42.775Z,15.50
2023-05-15T19:12:46.370Z,15.50
2023-05-15T19:17:49.867Z,15.40
2023-05-15T19:22:55.042Z,15.40
2023-05-15T19:27:58.600Z,15.20
2023-05-15T19:33:02.413Z,15.10
2023-05-15T19:38:07.598Z,15.10
2023-05-15T19:43:11.484Z,14.80
2023-05-15T19:48:15.013Z,14.60
2023-05-15T19:53:20.214Z,14.50
2023-05-15T19:58:23.504Z,14.40
2023-05-15T20:03:33.309Z,14.30
2023-05-15T20:08:38.981Z,13.90
2023-05-15T20:13:42.396Z,13.80
2023-05-15T20:18:47.998Z,13.90
2023-05-15T20:23:52.721Z,13.70
2023-05-15T20:28:56.262Z,13.70
2023-05-15T20:34:00.786Z,13.80
2023-05-15T20:39:07.210Z,13.90
2023-05-15T20:44:10.973Z,13.90
2023-05-15T20:49:14.404Z,14.00
2023-05-15T20:54:19.245Z,13.80
2023-05-15T20:59:22.826Z,14.20
2023-05-15T21:04:26.381Z,14.30
2023-05-15T21:09:31.681Z,14.40
2023-05-15T21:14:35.593Z,14.30
2023-05-15T21:19:39.009Z,14.20
2023-05-15T21:24:43.709Z,14.20
2023-05-15T21:29:47.128Z,14.00
2023-05-15T21:34:50.534Z,13.90
2023-05-15T21:39:55.335Z,13.80
2023-05-15T21:44:59.494Z,13.90
2023-05-15T21:50:02.907Z,13.70
2023-05-15T21:55:09.003Z,13.70
2023-05-15T22:00:14.085Z,13.90
2023-05-15T22:05:21.134Z,14.00
2023-05-15T22:10:26.246Z,13.90
2023-05-15T22:15:30.062Z,14.20
2023-05-15T22:20:34.192Z,14.20
2023-05-15T22:25:39.340Z,14.30
2023-05-15T22:30:42.705Z,14.30
2023-05-15T22:35:46.279Z,14.50
2023-05-15T22:40:52.405Z,14.40
2023-05-15T22:45:56.211Z,14.40
2023-05-15T22:50:59.638Z,14.30
2023-05-15T22:56:04.468Z,14.20
2023-05-15T23:01:07.859Z,14.10
2023-05-15T23:06:16.475Z,14.30
2023-05-15T23:11:21.434Z,14.30
2023-05-15T23:16:25.632Z,14.20
2023-05-15T23:21:29.122Z,14.00
2023-05-15T23:26:33.776Z,13.80
2023-05-15T23:31:37.102Z,13.70
2023-05-15T23:36:40.767Z,13.50
2023-05-15T23:41:45.558Z,13.60
2023-05-15T23:46:48.969Z,13.70
2023-05-15T23:51:52.317Z,13.70
2023-05-15T23:56:56.923Z,13.70
